Time;durP1;ratioP1;P1;durP2;ratioP2;P2;SDS_P1;SDS_P2;PMS_P1;PMS_P2;Temp;Humidity;BMP_temperature;BMP_pressure;BME280_temperature;BME280_humidity;BME280_pressure;Samples;Min_cycle;Max_cycle;Signal;HPM_P1;HPM_P2
2022/01/01 00:01:01;;;;;;;47.83;24.88;;;;;;;;;;6246635;28;20510;-66
2022/01/01 00:04:04;;;;;;;36.25;20.95;;;;;;;;;;6244583;28;20378;-66
2022/01/01 00:07:09;;;;;;;45.65;25.88;;;;;;;;;;6243816;28;20511;-66
2022/01/01 00:10:14;;;;;;;72.13;44.45;;;;;;;;;;6245961;28;20049;-67
2022/01/01 00:13:17;;;;;;;54.78;34.00;;;;;;;;;;6246039;28;20049;-66
2022/01/01 00:16:20;;;;;;;45.90;28.55;;;;;;;;;;6244986;28;20049;-66
2022/01/01 00:19:25;;;;;;;44.88;22.83;;;;;;;;;;6244093;28;20119;-65
2022/01/01 00:22:34;;;;;;;49.92;25.05;;;;;;;;;;6246054;28;20060;-66
2022/01/01 00:25:38;;;;;;;39.47;23.42;;;;;;;;;;6244112;28;20077;-66
2022/01/01 00:28:46;;;;;;;28.95;16.40;;;;;;;;;;6244458;28;20435;-64
2022/01/01 00:31:51;;;;;;;27.05;15.15;;;;;;;;;;6244510;28;20140;-67
2022/01/01 00:34:54;;;;;;;27.65;16.67;;;;;;;;;;6245388;28;20053;-67
2022/01/01 00:38:00;;;;;;;29.85;17.73;;;;;;;;;;6242953;28;20527;-66
2022/01/01 00:41:07;;;;;;;29.13;16.45;;;;;;;;;;6244701;28;20053;-66
2022/01/01 00:44:09;;;;;;;28.05;17.00;;;;;;;;;;6244126;28;20050;-66
2022/01/01 00:47:12;;;;;;;25.17;15.90;;;;;;;;;;6243515;28;20051;-66
2022/01/01 00:50:15;;;;;;;27.92;16.02;;;;;;;;;;6244422;28;20583;-66
2022/01/01 00:53:21;;;;;;;27.20;16.00;;;;;;;;;;6245204;28;20340;-67
2022/01/01 00:56:25;;;;;;;23.05;14.25;;;;;;;;;;6243591;28;20056;-67
2022/01/01 00:59:30;;;;;;;22.63;12.13;;;;;;;;;;6242719;28;20049;-67
2022/01/01 01:02:35;;;;;;;26.95;15.48;;;;;;;;;;6242954;28;20073;-67
2022/01/01 01:05:39;;;;;;;25.33;13.90;;;;;;;;;;6244913;28;20045;-66
2022/01/01 01:08:42;;;;;;;28.65;16.02;;;;;;;;;;6242976;28;20053;-65
2022/01/01 01:11:51;;;;;;;23.63;13.70;;;;;;;;;;6243881;28;20050;-66
2022/01/01 01:14:55;;;;;;;28.48;17.30;;;;;;;;;;6244676;28;20041;-67
2022/01/01 01:17:58;;;;;;;29.52;16.50;;;;;;;;;;6243270;28;20046;-67
2022/01/01 01:21:01;;;;;;;31.73;17.20;;;;;;;;;;6243335;28;20049;-66
2022/01/01 01:24:04;;;;;;;26.25;15.82;;;;;;;;;;6244128;28;20045;-66
2022/01/01 01:27:09;;;;;;;28.60;15.63;;;;;;;;;;6243083;28;20050;-66
2022/01/01 01:30:16;;;;;;;32.70;17.45;;;;;;;;;;6259517;28;20061;-66
2022/01/01 01:33:18;;;;;;;29.33;16.75;;;;;;;;;;6243244;28;20049;-67
2022/01/01 01:36:21;;;;;;;27.80;15.13;;;;;;;;;;6244071;28;20061;-67
2022/01/01 01:39:27;;;;;;;24.75;14.23;;;;;;;;;;6243842;28;20168;-65
2022/01/01 01:42:32;;;;;;;24.15;13.95;;;;;;;;;;6241359;28;20091;-66
2022/01/01 01:45:37;;;;;;;28.15;15.23;;;;;;;;;;6243713;28;20056;-66
2022/01/01 01:48:44;;;;;;;22.88;13.43;;;;;;;;;;6244222;28;20048;-66
2022/01/01 01:51:47;;;;;;;33.58;19.33;;;;;;;;;;6241150;28;20124;-66
2022/01/01 01:54:51;;;;;;;37.20;21.17;;;;;;;;;;6242790;28;20046;-66
2022/01/01 01:57:56;;;;;;;39.72;21.55;;;;;;;;;;6242535;28;20136;-67
2022/01/01 02:01:20;;;;;;;34.92;20.08;;;;;;;;;;6243451;28;20046;-67
2022/01/01 02:04:24;;;;;;;29.73;17.83;;;;;;;;;;6241553;28;20045;-65
2022/01/01 02:07:28;;;;;;;31.27;18.10;;;;;;;;;;6243037;28;20049;-67
2022/01/01 02:10:31;;;;;;;29.60;15.93;;;;;;;;;;6243531;28;20052;-66
2022/01/01 02:13:47;;;;;;;26.35;14.80;;;;;;;;;;6241524;28;20049;-66
2022/01/01 02:17:07;;;;;;;28.57;15.00;;;;;;;;;;6242124;28;20049;-65
2022/01/01 02:20:14;;;;;;;23.83;14.63;;;;;;;;;;6241716;28;20298;-67
2022/01/01 02:23:17;;;;;;;21.00;11.05;;;;;;;;;;6243742;28;20132;-66
2022/01/01 02:26:20;;;;;;;17.85;10.25;;;;;;;;;;6241005;28;20049;-66
2022/01/01 02:29:23;;;;;;;17.80;9.50;;;;;;;;;;6242319;28;20095;-66
2022/01/01 02:32:26;;;;;;;16.08;8.55;;;;;;;;;;6241605;28;20076;-67
2022/01/01 02:35:33;;;;;;;15.82;7.65;;;;;;;;;;6241387;28;20049;-66
2022/01/01 02:38:37;;;;;;;14.43;7.03;;;;;;;;;;6241471;28;20076;-66
2022/01/01 02:41:39;;;;;;;15.43;7.68;;;;;;;;;;6241583;28;20128;-66
2022/01/01 02:44:43;;;;;;;13.18;6.88;;;;;;;;;;6241641;28;20056;-66
2022/01/01 02:47:48;;;;;;;13.05;6.88;;;;;;;;;;6241859;28;20072;-66
2022/01/01 02:50:58;;;;;;;16.15;7.68;;;;;;;;;;6240763;28;20476;-66
2022/01/01 02:54:01;;;;;;;14.32;7.18;;;;;;;;;;6242781;28;20408;-66
2022/01/01 02:57:04;;;;;;;12.57;7.82;;;;;;;;;;6242104;28;20450;-66
2022/01/01 03:00:08;;;;;;;14.07;7.20;;;;;;;;;;6241529;28;20500;-65
2022/01/01 03:03:11;;;;;;;13.88;7.10;;;;;;;;;;6246510;28;20041;-64
2022/01/01 03:06:19;;;;;;;14.93;7.70;;;;;;;;;;6246264;28;20558;-67
2022/01/01 03:09:28;;;;;;;18.10;8.50;;;;;;;;;;6245295;28;20056;-66
2022/01/01 03:12:31;;;;;;;17.08;9.00;;;;;;;;;;6247179;28;20045;-67
2022/01/01 03:15:37;;;;;;;18.05;10.07;;;;;;;;;;6246235;28;20392;-66
2022/01/01 03:18:40;;;;;;;19.85;9.88;;;;;;;;;;6245699;28;20060;-66
2022/01/01 03:21:45;;;;;;;18.30;9.32;;;;;;;;;;6246107;28;20407;-66
2022/01/01 03:24:48;;;;;;;18.02;10.25;;;;;;;;;;6247613;28;20052;-67
2022/01/01 03:27:51;;;;;;;20.98;10.18;;;;;;;;;;6247180;28;20046;-66
2022/01/01 03:30:53;;;;;;;17.38;10.15;;;;;;;;;;6245969;28;20046;-66
2022/01/01 03:33:58;;;;;;;22.17;10.85;;;;;;;;;;6245842;28;20049;-66
2022/01/01 03:37:05;;;;;;;19.45;10.95;;;;;;;;;;6247751;28;20119;-66
2022/01/01 03:40:08;;;;;;;20.85;10.52;;;;;;;;;;6246596;28;20050;-66
2022/01/01 03:43:11;;;;;;;19.63;10.70;;;;;;;;;;6244437;28;20048;-67
2022/01/01 03:46:15;;;;;;;18.15;9.80;;;;;;;;;;6245556;28;20046;-67
2022/01/01 03:49:17;;;;;;;18.50;10.27;;;;;;;;;;6245620;28;20359;-66
2022/01/01 03:52:22;;;;;;;15.77;10.20;;;;;;;;;;6245379;28;20045;-66
2022/01/01 03:55:25;;;;;;;19.80;9.75;;;;;;;;;;6244984;28;20484;-65
2022/01/01 03:58:28;;;;;;;17.40;9.15;;;;;;;;;;6245221;28;20476;-66
2022/01/01 04:01:31;;;;;;;16.45;8.73;;;;;;;;;;6244177;28;20041;-66
2022/01/01 04:04:34;;;;;;;17.05;9.10;;;;;;;;;;6244273;28;20056;-66
2022/01/01 04:07:42;;;;;;;17.75;9.70;;;;;;;;;;6246273;28;20055;-66
2022/01/01 04:10:44;;;;;;;16.95;9.45;;;;;;;;;;6245962;28;20057;-66
2022/01/01 04:13:47;;;;;;;14.60;8.75;;;;;;;;;;6242754;28;20053;-66
2022/01/01 04:16:52;;;;;;;15.73;9.48;;;;;;;;;;6244564;28;20050;-67
2022/01/01 04:19:55;;;;;;;15.60;8.70;;;;;;;;;;6246120;28;20080;-67
2022/01/01 04:23:00;;;;;;;14.93;8.80;;;;;;;;;;6244765;28;20049;-66
2022/01/01 04:26:03;;;;;;;15.35;8.90;;;;;;;;;;6244003;28;20124;-66
2022/01/01 04:29:06;;;;;;;16.95;8.80;;;;;;;;;;6244887;28;20041;-66
2022/01/01 04:32:09;;;;;;;14.05;8.10;;;;;;;;;;6245008;28;20037;-66
2022/01/01 04:35:14;;;;;;;13.93;7.72;;;;;;;;;;6243178;28;20100;-67
2022/01/01 04:38:35;;;;;;;14.35;8.27;;;;;;;;;;6243829;28;20155;-66
2022/01/01 04:41:38;;;;;;;14.43;8.20;;;;;;;;;;6244349;28;20499;-66
2022/01/01 04:44:43;;;;;;;13.35;7.72;;;;;;;;;;6244517;28;20056;-67
2022/01/01 04:47:46;;;;;;;13.77;8.00;;;;;;;;;;6243205;28;20045;-67
2022/01/01 04:50:48;;;;;;;12.38;7.47;;;;;;;;;;6244424;28;20033;-67
2022/01/01 04:53:59;;;;;;;14.18;7.40;;;;;;;;;;6243558;28;20072;-66
2022/01/01 04:57:03;;;;;;;14.88;7.57;;;;;;;;;;6243930;28;20045;-66
2022/01/01 05:00:07;;;;;;;15.45;7.00;;;;;;;;;;6245382;28;20041;-66
2022/01/01 05:03:10;;;;;;;13.48;7.10;;;;;;;;;;6244767;28;20420;-66
2022/01/01 05:06:15;;;;;;;12.60;6.85;;;;;;;;;;6244007;28;20045;-66
2022/01/01 05:09:20;;;;;;;12.77;6.35;;;;;;;;;;6243088;28;20065;-66
2022/01/01 05:12:23;;;;;;;13.55;6.93;;;;;;;;;;6244134;28;20045;-66
2022/01/01 05:15:26;;;;;;;9.82;5.63;;;;;;;;;;6243000;28;20041;-66
2022/01/01 05:18:29;;;;;;;11.63;6.55;;;;;;;;;;6242215;28;20051;-66
2022/01/01 05:21:34;;;;;;;12.20;5.78;;;;;;;;;;6244543;28;20124;-66
2022/01/01 05:24:39;;;;;;;9.63;5.25;;;;;;;;;;6243134;28;20046;-66
2022/01/01 05:27:43;;;;;;;7.93;4.82;;;;;;;;;;6241940;28;20042;-66
2022/01/01 05:30:46;;;;;;;9.15;4.97;;;;;;;;;;6243997;28;20095;-66
2022/01/01 05:33:50;;;;;;;9.48;5.50;;;;;;;;;;6244381;28;20056;-66
2022/01/01 05:36:53;;;;;;;9.18;4.68;;;;;;;;;;6243204;28;20057;-67
2022/01/01 05:39:57;;;;;;;7.70;4.72;;;;;;;;;;6243167;28;20151;-67
2022/01/01 05:43:00;;;;;;;8.40;4.82;;;;;;;;;;6244020;28;20052;-66
2022/01/01 05:46:03;;;;;;;8.80;4.93;;;;;;;;;;6243836;28;20127;-66
2022/01/01 05:49:06;;;;;;;8.80;4.60;;;;;;;;;;6242773;28;20064;-66
2022/01/01 05:52:09;;;;;;;7.53;4.38;;;;;;;;;;6243946;28;20845;-66
2022/01/01 05:55:16;;;;;;;8.18;3.95;;;;;;;;;;6244001;28;20050;-66
2022/01/01 05:58:19;;;;;;;7.43;4.30;;;;;;;;;;6242765;28;20468;-66
2022/01/01 06:01:22;;;;;;;7.57;4.20;;;;;;;;;;6241536;28;20514;-66
2022/01/01 06:04:25;;;;;;;8.02;4.35;;;;;;;;;;6243461;28;20403;-66
2022/01/01 06:07:29;;;;;;;6.65;3.85;;;;;;;;;;6243113;28;20046;-65
2022/01/01 06:10:35;;;;;;;6.53;4.10;;;;;;;;;;6242399;28;20053;-67
2022/01/01 06:13:41;;;;;;;8.38;4.03;;;;;;;;;;6242101;28;20144;-66
2022/01/01 06:16:44;;;;;;;9.95;4.13;;;;;;;;;;6242439;28;20136;-66
2022/01/01 06:19:47;;;;;;;6.80;3.92;;;;;;;;;;6242678;28;20049;-66
2022/01/01 06:22:50;;;;;;;9.07;3.58;;;;;;;;;;6241360;28;20403;-67
2022/01/01 06:25:56;;;;;;;5.43;3.38;;;;;;;;;;6243262;28;20048;-67
2022/01/01 06:28:59;;;;;;;5.25;3.10;;;;;;;;;;6241475;28;20056;-66
2022/01/01 06:32:05;;;;;;;4.45;3.17;;;;;;;;;;6241952;28;20053;-66
2022/01/01 06:35:08;;;;;;;6.40;3.53;;;;;;;;;;6241835;28;20045;-65
2022/01/01 06:38:12;;;;;;;9.20;3.60;;;;;;;;;;6242218;28;20052;-66
2022/01/01 06:41:18;;;;;;;;;;;;;;;;;;6241122;28;20045;-64
2022/01/01 06:44:22;;;;;;;6.35;3.20;;;;;;;;;;6242471;28;19921;-64
2022/01/01 06:47:26;;;;;;;5.55;3.20;;;;;;;;;;6242948;28;20419;-66
2022/01/01 06:50:29;;;;;;;6.22;3.20;;;;;;;;;;6242132;28;20420;-66
2022/01/01 06:53:34;;;;;;;5.50;3.40;;;;;;;;;;6241741;28;20547;-66
2022/01/01 06:56:39;;;;;;;7.72;3.70;;;;;;;;;;6243148;28;20045;-66
2022/01/01 06:59:46;;;;;;;5.95;3.35;;;;;;;;;;6241444;28;20045;-66
2022/01/01 07:02:49;;;;;;;5.38;3.20;;;;;;;;;;6241285;28;20045;-66
2022/01/01 07:05:54;;;;;;;4.72;2.80;;;;;;;;;;6242383;28;20484;-66
2022/01/01 07:09:00;;;;;;;;;;;;;;;;;;6243246;28;20045;-67
2022/01/01 07:12:03;;;;;;;7.18;3.33;;;;;;;;;;6240797;28;20007;-66
2022/01/01 07:15:08;;;;;;;;;;;;;;;;;;6240788;28;20045;-66
2022/01/01 07:18:12;;;;;;;4.35;2.80;;;;;;;;;;6243492;28;19921;-66
2022/01/01 07:21:15;;;;;;;5.82;3.13;;;;;;;;;;6242660;28;20053;-66
2022/01/01 07:24:18;;;;;;;8.45;3.20;;;;;;;;;;6241254;28;20487;-67
2022/01/01 07:27:23;;;;;;;5.22;3.03;;;;;;;;;;6241479;28;20048;-66
2022/01/01 07:30:26;;;;;;;5.85;2.92;;;;;;;;;;6242775;28;20049;-65
2022/01/01 07:33:33;;;;;;;4.40;2.78;;;;;;;;;;6241503;28;20497;-65
2022/01/01 07:36:36;;;;;;;4.93;2.85;;;;;;;;;;6241342;28;20128;-65
2022/01/01 07:39:39;;;;;;;6.20;2.55;;;;;;;;;;6242292;28;20041;-65
2022/01/01 07:42:45;;;;;;;7.00;3.20;;;;;;;;;;6241114;28;20049;-66
2022/01/01 07:45:51;;;;;;;4.25;2.85;;;;;;;;;;6240989;28;20046;-65
2022/01/01 07:48:56;;;;;;;5.63;2.40;;;;;;;;;;6243100;28;20484;-65
2022/01/01 07:51:59;;;;;;;5.82;3.10;;;;;;;;;;6246996;28;20044;-66
2022/01/01 07:55:04;;;;;;;4.80;2.80;;;;;;;;;;6245615;28;20060;-67
2022/01/01 07:58:08;;;;;;;4.22;2.72;;;;;;;;;;6245088;28;20045;-66
2022/01/01 08:01:13;;;;;;;4.55;2.70;;;;;;;;;;6246553;28;20175;-67
2022/01/01 08:04:18;;;;;;;7.35;3.08;;;;;;;;;;6245021;28;20103;-66
2022/01/01 08:07:21;;;;;;;6.63;3.17;;;;;;;;;;6245036;28;20041;-65
2022/01/01 08:10:44;;;;;;;4.20;2.60;;;;;;;;;;6244813;28;20049;-66
2022/01/01 08:13:49;;;;;;;10.05;3.15;;;;;;;;;;6245515;28;20049;-66
2022/01/01 08:16:55;;;;;;;4.97;3.05;;;;;;;;;;6244023;28;20034;-66
2022/01/01 08:19:59;;;;;;;5.95;3.35;;;;;;;;;;6245502;28;20041;-66
2022/01/01 08:23:02;;;;;;;5.45;2.75;;;;;;;;;;6245883;28;20037;-66
2022/01/01 08:26:05;;;;;;;5.45;2.97;;;;;;;;;;6245714;28;20095;-66
2022/01/01 08:29:11;;;;;;;6.07;3.20;;;;;;;;;;6243156;28;20048;-65
2022/01/01 08:32:14;;;;;;;5.00;2.90;;;;;;;;;;6245573;28;20438;-66
2022/01/01 08:35:18;;;;;;;5.45;3.20;;;;;;;;;;6245873;28;20046;-66
2022/01/01 08:38:21;;;;;;;7.32;2.88;;;;;;;;;;6244200;28;20053;-65
2022/01/01 08:41:26;;;;;;;;;;;;;;;;;;6260786;28;20403;-66
2022/01/01 08:44:29;;;;;;;6.47;3.40;;;;;;;;;;6245522;28;19932;-65
2022/01/01 08:47:34;;;;;;;;;;;;;;;;;;6244683;28;20577;-65
2022/01/01 08:50:39;;;;;;;5.82;3.47;;;;;;;;;;6244069;28;20058;-66
2022/01/01 08:53:42;;;;;;;6.10;2.80;;;;;;;;;;6245561;28;20045;-66
2022/01/01 08:56:45;;;;;;;6.85;2.80;;;;;;;;;;6245291;28;20052;-66
2022/01/01 08:59:48;;;;;;;9.27;3.28;;;;;;;;;;6243348;28;20466;-66
2022/01/01 09:02:50;;;;;;;5.85;2.88;;;;;;;;;;6244965;28;20132;-66
2022/01/01 09:06:00;;;;;;;7.45;2.97;;;;;;;;;;6245062;28;20099;-66
2022/01/01 09:09:07;;;;;;;5.40;3.00;;;;;;;;;;6244922;28;20057;-66
2022/01/01 09:12:12;;;;;;;4.68;3.00;;;;;;;;;;6243660;28;20072;-66
2022/01/01 09:15:17;;;;;;;5.28;3.10;;;;;;;;;;6243816;28;20052;-66
2022/01/01 09:18:21;;;;;;;5.00;2.90;;;;;;;;;;6244730;28;20048;-66
2022/01/01 09:21:25;;;;;;;6.40;3.50;;;;;;;;;;6241965;28;20049;-65
2022/01/01 09:24:28;;;;;;;3.67;2.72;;;;;;;;;;6244197;28;20068;-64
2022/01/01 09:27:32;;;;;;;5.50;2.90;;;;;;;;;;6243210;28;20068;-66
2022/01/01 09:30:35;;;;;;;4.70;2.95;;;;;;;;;;6242619;28;20052;-66
2022/01/01 09:33:38;;;;;;;5.07;3.30;;;;;;;;;;6243278;28;20399;-66
2022/01/01 09:36:42;;;;;;;4.40;2.88;;;;;;;;;;6242706;28;20068;-66
2022/01/01 09:39:45;;;;;;;5.38;3.33;;;;;;;;;;6244129;28;20046;-66
2022/01/01 09:42:48;;;;;;;7.95;3.58;;;;;;;;;;6242706;28;20054;-66
2022/01/01 09:45:53;;;;;;;5.32;3.15;;;;;;;;;;6242632;28;20041;-65
2022/01/01 09:48:58;;;;;;;5.05;2.75;;;;;;;;;;6244097;28;20045;-67
2022/01/01 09:52:03;;;;;;;4.85;3.03;;;;;;;;;;6243014;28;20060;-65
2022/01/01 09:55:06;;;;;;;5.80;3.20;;;;;;;;;;6241752;28;20049;-65
2022/01/01 09:58:09;;;;;;;6.38;3.15;;;;;;;;;;6243832;28;20048;-64
2022/01/01 10:01:15;;;;;;;5.18;2.92;;;;;;;;;;6242306;28;20537;-66
2022/01/01 10:04:19;;;;;;;6.65;3.30;;;;;;;;;;6241008;28;20045;-66
2022/01/01 10:07:28;;;;;;;5.78;3.17;;;;;;;;;;6243457;28;20438;-66
2022/01/01 10:10:33;;;;;;;5.93;3.15;;;;;;;;;;6243573;28;20038;-65
2022/01/01 10:13:37;;;;;;;4.18;2.88;;;;;;;;;;6240561;28;20041;-65
2022/01/01 10:16:44;;;;;;;5.43;2.83;;;;;;;;;;6242577;28;20407;-66
2022/01/01 10:19:51;;;;;;;5.45;2.85;;;;;;;;;;6241982;28;20045;-66
2022/01/01 10:22:55;;;;;;;6.07;2.88;;;;;;;;;;6243230;28;20041;-67
2022/01/01 10:29:32;;;;;;;4.25;2.58;;;;;;;;;;6243119;28;20037;-66
2022/01/01 10:32:38;;;;;;;4.47;2.67;;;;;;;;;;6243095;28;20054;-67
2022/01/01 10:35:41;;;;;;;5.38;3.00;;;;;;;;;;6242925;28;20447;-65
2022/01/01 10:38:46;;;;;;;5.07;2.92;;;;;;;;;;6241470;28;20045;-66
2022/01/01 10:41:50;;;;;;;4.82;2.58;;;;;;;;;;6242843;28;20045;-66
2022/01/01 10:44:54;;;;;;;3.27;2.40;;;;;;;;;;6243018;28;20041;-66
2022/01/01 10:48:23;;;;;;;4.50;2.60;;;;;;;;;;6241517;28;20480;-66
2022/01/01 10:51:36;;;;;;;6.07;2.50;;;;;;;;;;6242275;28;20064;-66
2022/01/01 10:54:40;;;;;;;4.75;2.80;;;;;;;;;;6243199;28;20060;-66
2022/01/01 10:57:43;;;;;;;5.82;2.90;;;;;;;;;;6243005;28;20038;-66
2022/01/01 11:00:46;;;;;;;4.22;3.05;;;;;;;;;;6241627;28;20416;-66
2022/01/01 11:03:49;;;;;;;4.97;2.78;;;;;;;;;;6241486;28;20049;-64
2022/01/01 11:06:55;;;;;;;4.00;2.90;;;;;;;;;;6241401;28;20045;-66
2022/01/01 11:09:59;;;;;;;4.07;2.65;;;;;;;;;;6240619;28;20476;-66
2022/01/01 11:13:04;;;;;;;5.03;2.58;;;;;;;;;;6241807;28;20050;-66
2022/01/01 11:16:07;;;;;;;3.38;2.33;;;;;;;;;;6241378;28;20057;-67
2022/01/01 11:19:11;;;;;;;3.90;2.60;;;;;;;;;;6242679;28;20127;-66
2022/01/01 11:22:18;;;;;;;3.90;2.70;;;;;;;;;;6241649;28;20434;-66
2022/01/01 11:25:22;;;;;;;3.80;2.60;;;;;;;;;;6262587;28;20124;-66
2022/01/01 11:28:28;;;;;;;5.32;3.00;;;;;;;;;;6247408;28;20045;-67
2022/01/01 11:31:31;;;;;;;3.88;2.42;;;;;;;;;;6244948;28;20053;-66
2022/01/01 11:34:38;;;;;;;2.85;2.40;;;;;;;;;;6246792;28;20049;-66
2022/01/01 11:37:54;;;;;;;4.05;2.35;;;;;;;;;;6247255;28;20065;-66
2022/01/01 11:40:59;;;;;;;4.55;2.53;;;;;;;;;;6245656;28;20045;-66
2022/01/01 11:44:02;;;;;;;3.30;2.20;;;;;;;;;;6245612;28;20167;-66
2022/01/01 11:47:06;;;;;;;3.17;2.35;;;;;;;;;;6246745;28;20045;-66
2022/01/01 11:50:31;;;;;;;2.95;2.22;;;;;;;;;;6246878;28;20052;-66
2022/01/01 11:53:34;;;;;;;3.58;2.42;;;;;;;;;;6244971;28;20045;-66
2022/01/01 11:56:56;;;;;;;3.22;2.38;;;;;;;;;;6245479;28;20083;-66
2022/01/01 12:00:09;;;;;;;3.03;2.35;;;;;;;;;;6234429;28;20053;-66
2022/01/01 12:03:12;;;;;;;4.15;2.40;;;;;;;;;;6246474;28;20510;-65
2022/01/01 12:06:15;;;;;;;3.70;2.33;;;;;;;;;;6244548;28;20053;-65
2022/01/01 12:09:18;;;;;;;3.08;2.00;;;;;;;;;;6245461;28;20049;-65
2022/01/01 12:12:35;;;;;;;3.53;2.10;;;;;;;;;;6245110;28;20045;-66
2022/01/01 12:15:42;;;;;;;5.37;1.93;;;;;;;;;;6245394;28;20155;-65
2022/01/01 12:18:45;;;;;;;1.95;1.77;;;;;;;;;;6244780;28;20053;-65
2022/01/01 12:21:48;;;;;;;2.20;1.65;;;;;;;;;;6244752;28;20053;-65
2022/01/01 12:24:54;;;;;;;2.92;1.98;;;;;;;;;;6244884;28;20045;-66
2022/01/01 12:27:57;;;;;;;2.95;1.90;;;;;;;;;;6244009;28;20056;-66
2022/01/01 12:31:07;;;;;;;2.28;1.85;;;;;;;;;;6245033;28;20050;-66
2022/01/01 12:34:23;;;;;;;3.40;1.80;;;;;;;;;;6244983;28;20049;-65
2022/01/01 12:37:35;;;;;;;2.22;1.58;;;;;;;;;;6245725;28;20060;-66
2022/01/01 12:40:40;;;;;;;1.90;1.60;;;;;;;;;;6244373;28;20614;-66
2022/01/01 12:43:47;;;;;;;2.13;1.90;;;;;;;;;;6243793;28;20053;-66
2022/01/01 12:46:52;;;;;;;2.45;1.90;;;;;;;;;;6245494;28;20045;-66
2022/01/01 12:50:04;;;;;;;2.10;1.90;;;;;;;;;;6245379;28;20072;-65
2022/01/01 12:53:06;;;;;;;;;;;;;;;;;;6244810;28;20049;-65
2022/01/01 12:56:13;;;;;;;2.92;2.03;;;;;;;;;;6245484;28;19925;-65
2022/01/01 12:59:18;;;;;;;2.70;2.10;;;;;;;;;;6246034;28;20053;-65
2022/01/01 13:02:23;;;;;;;3.38;2.03;;;;;;;;;;6242880;28;20045;-66
2022/01/01 13:05:26;;;;;;;2.42;1.63;;;;;;;;;;6243197;28;20431;-66
2022/01/01 13:08:30;;;;;;;2.67;2.20;;;;;;;;;;6245160;28;20045;-65
2022/01/01 13:11:33;;;;;;;2.70;2.10;;;;;;;;;;6244762;28;20511;-67
2022/01/01 13:14:38;;;;;;;2.85;1.88;;;;;;;;;;6242353;28;20049;-66
2022/01/01 13:17:46;;;;;;;3.47;1.88;;;;;;;;;;6244799;28;20095;-67
2022/01/01 13:20:49;;;;;;;3.78;1.95;;;;;;;;;;6243415;28;20395;-66
2022/01/01 13:23:52;;;;;;;4.80;2.10;;;;;;;;;;6243340;28;20389;-66
2022/01/01 13:26:55;;;;;;;2.90;2.13;;;;;;;;;;6243087;28;20042;-66
2022/01/01 13:30:01;;;;;;;3.97;2.20;;;;;;;;;;6243226;28;20041;-66
2022/01/01 13:33:05;;;;;;;3.08;2.08;;;;;;;;;;6242546;28;20049;-66
2022/01/01 13:36:11;;;;;;;3.67;2.00;;;;;;;;;;6242041;28;20530;-66
2022/01/01 13:39:14;;;;;;;2.72;1.88;;;;;;;;;;6244111;28;20495;-66
2022/01/01 13:42:18;;;;;;;2.42;1.83;;;;;;;;;;6242984;28;20525;-66
2022/01/01 13:45:23;;;;;;;2.42;2.00;;;;;;;;;;6242540;28;20041;-65
2022/01/01 13:48:28;;;;;;;5.35;2.10;;;;;;;;;;6243045;28;20093;-64
2022/01/01 13:51:31;;;;;;;3.88;2.33;;;;;;;;;;6244055;28;20045;-65
2022/01/01 13:54:35;;;;;;;2.60;2.13;;;;;;;;;;6243494;28;20049;-65
2022/01/01 13:57:50;;;;;;;4.53;2.37;;;;;;;;;;6241627;28;20049;-66
2022/01/01 14:00:54;;;;;;;2.58;1.88;;;;;;;;;;6243780;28;20752;-66
2022/01/01 14:03:59;;;;;;;5.22;2.10;;;;;;;;;;6242794;28;20041;-66
2022/01/01 14:07:03;;;;;;;3.90;2.13;;;;;;;;;;6242468;28;20072;-66
2022/01/01 14:10:07;;;;;;;3.58;2.38;;;;;;;;;;6242569;28;20045;-66
2022/01/01 14:13:12;;;;;;;4.22;2.40;;;;;;;;;;6242222;28;20046;-66
2022/01/01 14:16:21;;;;;;;5.60;2.58;;;;;;;;;;6242972;28;20045;-66
2022/01/01 14:19:25;;;;;;;2.90;2.10;;;;;;;;;;6240860;28;20087;-66
2022/01/01 14:22:29;;;;;;;4.32;2.20;;;;;;;;;;6243400;28;20045;-65
2022/01/01 14:25:33;;;;;;;2.65;2.03;;;;;;;;;;6243267;28;20449;-65
2022/01/01 14:28:36;;;;;;;4.88;2.30;;;;;;;;;;6242125;28;20400;-65
2022/01/01 14:31:39;;;;;;;3.45;2.15;;;;;;;;;;6241473;28;20052;-65
2022/01/01 14:34:47;;;;;;;5.70;2.70;;;;;;;;;;6241674;28;20046;-66
2022/01/01 14:37:50;;;;;;;3.38;2.30;;;;;;;;;;6240777;28;20062;-66
2022/01/01 14:40:56;;;;;;;3.42;2.17;;;;;;;;;;6240697;28;20045;-66
2022/01/01 14:43:58;;;;;;;2.83;2.13;;;;;;;;;;6241997;28;20048;-65
2022/01/01 14:47:07;;;;;;;3.15;2.00;;;;;;;;;;6243013;28;20041;-66
2022/01/01 14:50:11;;;;;;;3.50;2.20;;;;;;;;;;6241825;28;20411;-66
2022/01/01 14:53:18;;;;;;;3.77;2.27;;;;;;;;;;6241330;28;20049;-65
2022/01/01 14:56:31;;;;;;;3.08;2.13;;;;;;;;;;6242893;28;20120;-66
2022/01/01 14:59:35;;;;;;;5.80;2.50;;;;;;;;;;6241043;28;20053;-65
2022/01/01 15:02:38;;;;;;;3.65;2.40;;;;;;;;;;6241383;28;20060;-66
2022/01/01 15:05:43;;;;;;;3.95;2.25;;;;;;;;;;6242698;28;20049;-65
2022/01/01 15:08:45;;;;;;;4.87;2.50;;;;;;;;;;6242563;28;20045;-65
2022/01/01 15:11:54;;;;;;;5.10;2.65;;;;;;;;;;6241245;28;20419;-66
2022/01/01 15:14:58;;;;;;;3.78;2.20;;;;;;;;;;6242346;28;20132;-65
2022/01/01 15:18:02;;;;;;;6.22;2.60;;;;;;;;;;6242475;28;20488;-65
2022/01/01 15:21:06;;;;;;;7.13;2.83;;;;;;;;;;6241709;28;20536;-65
2022/01/01 15:24:12;;;;;;;5.50;2.73;;;;;;;;;;6241788;28;20053;-65
2022/01/01 15:27:17;;;;;;;4.40;2.60;;;;;;;;;;6241250;28;20045;-66
2022/01/01 15:30:32;;;;;;;4.65;2.30;;;;;;;;;;6241185;28;20050;-65
2022/01/01 15:33:39;;;;;;;3.70;2.40;;;;;;;;;;6241197;28;20037;-66
2022/01/01 15:36:52;;;;;;;4.88;2.55;;;;;;;;;;6240318;28;20395;-66
2022/01/01 15:40:03;;;;;;;3.25;2.30;;;;;;;;;;6242241;28;20423;-65
2022/01/01 15:43:09;;;;;;;5.18;2.47;;;;;;;;;;6240660;28;20046;-66
2022/01/01 15:46:12;;;;;;;5.13;3.03;;;;;;;;;;6239587;28;20404;-66
2022/01/01 15:49:17;;;;;;;3.95;2.53;;;;;;;;;;6242156;28;20049;-65
2022/01/01 15:52:22;;;;;;;4.60;2.72;;;;;;;;;;6242142;28;20069;-65
2022/01/01 15:55:25;;;;;;;;;;;;;;;;;;6241474;28;20064;-66
2022/01/01 15:58:35;;;;;;;3.88;2.45;;;;;;;;;;6241453;28;19940;-65
2022/01/01 16:01:41;;;;;;;4.85;2.88;;;;;;;;;;6242430;28;20045;-65
2022/01/01 16:04:54;;;;;;;5.05;2.25;;;;;;;;;;6240366;28;20517;-65
2022/01/01 16:08:01;;;;;;;3.33;2.47;;;;;;;;;;6239435;28;20503;-65
2022/01/01 16:11:04;;;;;;;5.55;2.50;;;;;;;;;;6244713;28;20117;-65
2022/01/01 16:14:11;;;;;;;4.68;2.58;;;;;;;;;;6246149;28;20037;-65
2022/01/01 16:17:15;;;;;;;5.95;2.67;;;;;;;;;;6244930;28;20477;-65
2022/01/01 16:20:18;;;;;;;3.67;2.45;;;;;;;;;;6245197;28;20076;-65
2022/01/01 16:23:26;;;;;;;4.78;2.40;;;;;;;;;;6245243;28;20163;-67
2022/01/01 16:26:29;;;;;;;4.65;2.40;;;;;;;;;;6245767;28;20049;-66
2022/01/01 16:29:32;;;;;;;4.32;2.58;;;;;;;;;;6244682;28;20491;-67
2022/01/01 16:32:35;;;;;;;5.25;2.63;;;;;;;;;;6261296;28;20064;-66
2022/01/01 16:35:38;;;;;;;3.63;2.60;;;;;;;;;;6244598;28;20046;-68
2022/01/01 16:38:46;;;;;;;4.63;2.60;;;;;;;;;;6244957;28;20087;-64
2022/01/01 16:41:56;;;;;;;4.82;2.58;;;;;;;;;;6244789;28;20069;-66
2022/01/01 16:45:03;;;;;;;3.53;2.55;;;;;;;;;;6244355;28;20050;-66
2022/01/01 16:48:15;;;;;;;5.93;3.28;;;;;;;;;;6245322;28;20049;-66
2022/01/01 16:51:19;;;;;;;5.53;2.60;;;;;;;;;;6244500;28;20391;-67
2022/01/01 16:54:23;;;;;;;4.72;2.65;;;;;;;;;;6243768;28;20068;-64
2022/01/01 16:57:28;;;;;;;4.90;3.10;;;;;;;;;;6244039;28;20484;-66
2022/01/01 17:00:31;;;;;;;4.88;2.92;;;;;;;;;;6244595;28;20111;-66
2022/01/01 17:03:41;;;;;;;5.68;3.00;;;;;;;;;;6244162;28;20107;-66
2022/01/01 17:06:45;;;;;;;5.82;3.13;;;;;;;;;;6245081;28;20045;-65
2022/01/01 17:09:55;;;;;;;5.63;3.10;;;;;;;;;;6245006;28;20053;-66
2022/01/01 17:12:59;;;;;;;6.63;3.25;;;;;;;;;;6243876;28;20199;-66
2022/01/01 17:16:07;;;;;;;5.87;2.83;;;;;;;;;;6243292;28;20052;-66
2022/01/01 17:19:13;;;;;;;4.80;3.28;;;;;;;;;;6244866;28;20302;-67
2022/01/01 17:22:26;;;;;;;5.85;3.10;;;;;;;;;;6259064;28;20411;-67
2022/01/01 17:25:32;;;;;;;6.18;3.35;;;;;;;;;;6243332;28;20055;-67
2022/01/01 17:28:44;;;;;;;4.85;3.17;;;;;;;;;;6244482;28;20053;-66
2022/01/01 17:31:50;;;;;;;6.82;3.70;;;;;;;;;;6243189;28;20413;-66
2022/01/01 17:35:12;;;;;;;4.85;3.30;;;;;;;;;;6241948;28;20076;-66
2022/01/01 17:41:53;;;;;;;4.38;2.90;;;;;;;;;;6220660;28;20089;-66
2022/01/01 17:44:56;;;;;;;5.88;3.08;;;;;;;;;;6244158;28;20061;-66
2022/01/01 17:48:00;;;;;;;5.38;3.13;;;;;;;;;;6241934;28;20087;-66
2022/01/01 17:51:07;;;;;;;5.60;3.35;;;;;;;;;;6241881;28;20476;-66
2022/01/01 17:54:11;;;;;;;5.80;3.40;;;;;;;;;;6242692;28;20053;-66
2022/01/01 17:57:18;;;;;;;5.53;3.10;;;;;;;;;;6244010;28;20492;-65
2022/01/01 18:00:25;;;;;;;5.97;3.53;;;;;;;;;;6242545;28;20550;-65
2022/01/01 18:03:28;;;;;;;5.53;3.53;;;;;;;;;;6242106;28;20049;-66
2022/01/01 18:06:31;;;;;;;6.25;3.60;;;;;;;;;;6243668;28;20091;-66
2022/01/01 18:09:38;;;;;;;6.47;3.40;;;;;;;;;;6241415;28;20057;-66
2022/01/01 18:12:47;;;;;;;7.25;3.95;;;;;;;;;;6242673;28;20056;-66
2022/01/01 18:15:52;;;;;;;8.13;4.13;;;;;;;;;;6242307;28;20123;-66
2022/01/01 18:18:58;;;;;;;7.50;3.45;;;;;;;;;;6243051;28;20041;-66
2022/01/01 18:22:03;;;;;;;6.38;3.35;;;;;;;;;;6240933;28;20144;-66
2022/01/01 18:25:09;;;;;;;5.60;4.00;;;;;;;;;;6243580;28;20041;-66
2022/01/01 18:28:16;;;;;;;6.32;4.43;;;;;;;;;;6241985;28;20091;-66
2022/01/01 18:31:19;;;;;;;6.57;3.67;;;;;;;;;;6242641;28;20327;-66